Time;durP1;ratioP1;P1;durP2;ratioP2;P2;SDS_P1;SDS_P2;PMS_P1;PMS_P2;Temp;Humidity;BMP_temperature;BMP_pressure;BME280_temperature;BME280_humidity;BME280_pressure;Samples;Min_cycle;Max_cycle;Signal;HPM_P1;HPM_P2
2022/06/29 00:00:45;;;;;;;5.00;2.95;;;21.70;97.50;;;;;;5059261;28;20697;-33
2022/06/29 00:03:12;;;;;;;2.67;2.47;;;21.70;97.50;;;;;;5048445;28;20205;-33
2022/06/29 00:05:41;;;;;;;4.00;2.60;;;21.70;97.50;;;;;;5048111;28;20702;-33
2022/06/29 00:08:09;;;;;;;4.32;2.90;;;21.60;97.50;;;;;;5048451;28;20725;-32
2022/06/29 00:10:39;;;;;;;4.60;2.83;;;21.60;97.60;;;;;;5048021;28;20224;-33
2022/06/29 00:13:07;;;;;;;3.58;2.60;;;21.50;97.50;;;;;;5048885;28;20491;-33
2022/06/29 00:15:37;;;;;;;4.63;2.55;;;21.50;97.60;;;;;;5048401;28;20243;-34
2022/06/29 00:18:05;;;;;;;4.78;3.15;;;21.50;97.60;;;;;;5048788;28;20208;-33
2022/06/29 00:20:32;;;;;;;4.93;2.80;;;21.40;97.60;;;;;;5046893;28;20302;-32
2022/06/29 00:22:59;;;;;;;3.05;2.40;;;21.40;97.60;;;;;;5048487;28;20667;-32
2022/06/29 00:25:26;;;;;;;4.60;2.80;;;21.40;97.60;;;;;;5036144;28;20618;-33
2022/06/29 00:27:54;;;;;;;3.63;2.35;;;21.30;97.60;;;;;;5032516;28;20212;-32
2022/06/29 00:30:21;;;;;;;4.40;2.50;;;21.30;97.60;;;;;;5048129;28;20200;-33
2022/06/29 00:32:51;;;;;;;4.38;2.70;;;21.20;97.50;;;;;;5066173;28;20216;-33
2022/06/29 00:35:18;;;;;;;4.53;2.92;;;21.20;97.60;;;;;;5068053;28;20210;-48
2022/06/29 00:37:45;;;;;;;5.07;3.10;;;21.20;97.60;;;;;;5068011;28;20231;-48
2022/06/29 00:40:16;;;;;;;7.57;2.67;;;21.10;97.50;;;;;;5067804;28;20203;-49
2022/06/29 00:42:46;;;;;;;5.38;2.17;;;21.10;97.50;;;;;;5054412;28;20745;-47
2022/06/29 00:45:13;;;;;;;4.63;2.38;;;21.10;97.60;;;;;;5047941;28;20633;-47
2022/06/29 00:47:43;;;;;;;5.07;2.40;;;21.10;97.60;;;;;;5048187;28;20220;-47
2022/06/29 00:50:12;;;;;;;4.32;2.53;;;21.00;97.60;;;;;;5047739;28;20740;-46
2022/06/29 00:52:42;;;;;;;5.45;3.03;;;21.00;97.60;;;;;;5045783;28;20239;-45
2022/06/29 00:55:16;;;;;;;5.40;2.70;;;20.90;97.60;;;;;;5047758;28;20280;-47
2022/06/29 00:57:47;;;;;;;6.10;3.13;;;20.90;97.70;;;;;;5046808;28;20820;-45
2022/06/29 01:00:15;;;;;;;4.03;2.40;;;20.90;97.70;;;;;;5045383;28;20277;-47
2022/06/29 01:02:42;;;;;;;3.28;2.33;;;20.80;97.70;;;;;;5047425;28;20635;-46
2022/06/29 01:05:13;;;;;;;3.70;2.38;;;20.80;97.70;;;;;;5047065;28;20243;-46
2022/06/29 01:07:44;;;;;;;2.67;2.40;;;20.80;97.70;;;;;;5045479;28;20224;-46
2022/06/29 01:10:16;;;;;;;6.45;2.95;;;20.80;97.60;;;;;;5035053;28;20300;-46
2022/06/29 01:12:47;;;;;;;4.57;2.45;;;20.80;97.70;;;;;;5045784;28;20239;-46
2022/06/29 01:15:14;;;;;;;7.90;3.63;;;20.70;97.60;;;;;;5047097;28;20594;-46
2022/06/29 01:17:44;;;;;;;14.23;5.57;;;20.70;97.60;;;;;;5059268;28;20757;-46
2022/06/29 01:20:12;;;;;;;14.30;4.85;;;20.60;97.60;;;;;;5046589;28;20291;-46
2022/06/29 01:22:42;;;;;;;12.38;4.53;;;20.60;97.60;;;;;;5047444;28;20751;-47
2022/06/29 01:25:09;;;;;;;5.72;3.47;;;20.60;97.70;;;;;;5047287;28;20568;-47
2022/06/29 01:27:39;;;;;;;5.03;2.85;;;20.60;97.60;;;;;;5045866;28;20224;-45
2022/06/29 01:30:09;;;;;;;5.53;2.75;;;20.50;97.60;;;;;;5046848;28;20760;-46
2022/06/29 01:32:40;;;;;;;4.65;3.10;;;20.50;97.60;;;;;;5047231;28;20243;-46
2022/06/29 01:35:10;;;;;;;4.80;2.70;;;20.50;97.60;;;;;;5047050;28;20192;-46
2022/06/29 01:37:42;;;;;;;3.33;2.80;;;20.50;97.60;;;;;;5047097;28;20267;-46
2022/06/29 01:40:12;;;;;;;2.90;2.45;;;20.50;97.70;;;;;;5046918;28;20212;-46
2022/06/29 01:42:39;;;;;;;2.05;1.92;;;20.40;97.60;;;;;;5047305;28;20200;-46
2022/06/29 01:45:08;;;;;;;3.70;2.15;;;20.40;97.70;;;;;;5047429;28;20254;-47
2022/06/29 01:47:35;;;;;;;3.97;2.20;;;20.40;97.70;;;;;;5045871;28;20747;-47
2022/06/29 01:50:03;;;;;;;3.55;2.20;;;20.40;97.70;;;;;;5056999;28;20969;-47
2022/06/29 01:52:33;;;;;;;5.18;2.20;;;20.40;97.70;;;;;;5047124;28;20311;-46
2022/06/29 01:55:02;;;;;;;4.25;2.10;;;20.40;97.70;;;;;;5046976;28;20377;-45
2022/06/29 01:57:32;;;;;;;3.50;2.30;;;20.30;97.70;;;;;;5047447;28;20204;-46
2022/06/29 01:59:59;;;;;;;2.65;2.22;;;20.40;97.70;;;;;;5046862;28;20202;-46
2022/06/29 02:02:27;;;;;;;3.25;2.08;;;20.30;97.70;;;;;;5028691;28;20235;-46
2022/06/29 02:04:54;;;;;;;3.47;2.30;;;20.30;97.90;;;;;;5026894;28;20254;-45
2022/06/29 02:07:21;;;;;;;4.43;2.30;;;20.30;98.00;;;;;;5037224;28;20702;-45
2022/06/29 02:09:49;;;;;;;3.55;2.25;;;20.30;98.00;;;;;;5062463;28;20262;-45
2022/06/29 02:12:20;;;;;;;2.40;1.98;;;20.30;97.90;;;;;;5045555;28;20571;-46
2022/06/29 02:14:50;;;;;;;4.60;2.75;;;20.20;97.90;;;;;;5045763;28;20204;-46
2022/06/29 02:17:22;;;;;;;3.35;2.42;;;20.20;98.00;;;;;;5047460;28;20641;-46
2022/06/29 02:19:50;;;;;;;3.95;2.15;;;20.20;98.00;;;;;;5047495;28;20250;-46
2022/06/29 02:22:22;;;;;;;5.72;2.40;;;20.20;98.30;;;;;;5047445;28;20212;-46
2022/06/29 02:24:54;;;;;;;3.20;2.28;;;20.10;98.00;;;;;;5049649;28;20258;-46
2022/06/29 02:27:24;;;;;;;3.78;2.33;;;20.10;98.00;;;;;;5050366;28;20207;-46
2022/06/29 02:29:52;;;;;;;3.65;2.30;;;20.10;98.00;;;;;;5051086;28;20232;-46
2022/06/29 02:35:05;;;;;;;4.20;2.70;;;20.00;97.90;;;;;;5030627;28;20291;-47
2022/06/29 02:37:36;;;;;;;6.10;2.55;;;20.00;97.90;;;;;;5030827;28;20267;-46
2022/06/29 02:40:03;;;;;;;3.55;2.25;;;20.00;97.90;;;;;;5030570;28;20209;-48
2022/06/29 02:42:31;;;;;;;3.70;2.60;;;20.00;98.00;;;;;;5056094;28;20207;-45
2022/06/29 02:45:20;;;;;;;4.95;3.25;;;19.90;98.00;;;;;;5054388;28;20211;-46
2022/06/29 02:47:51;;;;;;;3.95;2.40;;;19.90;97.90;;;;;;5051302;28;20197;-46
2022/06/29 02:50:18;;;;;;;4.45;2.40;;;19.90;98.00;;;;;;5049243;28;20683;-47
2022/06/29 02:52:45;;;;;;;4.18;2.97;;;19.80;98.20;;;;;;5050806;28;20188;-47
2022/06/29 02:55:15;;;;;;;5.57;2.35;;;19.80;98.00;;;;;;5050376;28;20196;-46
2022/06/29 02:57:42;;;;;;;4.28;2.58;;;19.80;98.00;;;;;;5050658;28;20278;-46
2022/06/29 03:00:11;;;;;;;3.10;2.20;;;19.80;98.10;;;;;;5050575;28;20283;-45
2022/06/29 03:02:38;;;;;;;4.32;2.30;;;19.70;98.00;;;;;;5033904;28;20212;-45
2022/06/29 03:05:06;;;;;;;3.58;2.22;;;19.70;98.10;;;;;;5048837;28;20200;-47
2022/06/29 03:07:34;;;;;;;4.68;2.35;;;19.70;98.10;;;;;;5048973;28;20240;-47
2022/06/29 03:10:04;;;;;;;2.60;2.22;;;19.70;98.10;;;;;;5064920;28;20403;-46
2022/06/29 03:12:31;;;;;;;3.70;2.20;;;19.70;98.20;;;;;;5050286;28;20203;-47
2022/06/29 03:15:01;;;;;;;3.22;2.45;;;19.70;98.10;;;;;;5049755;28;20204;-46
2022/06/29 03:17:31;;;;;;;3.60;2.20;;;19.60;98.10;;;;;;5050044;28;20678;-48
2022/06/29 03:19:58;;;;;;;3.42;2.45;;;19.60;98.20;;;;;;5028392;28;20197;-46
2022/06/29 03:22:30;;;;;;;5.40;2.80;;;19.60;98.20;;;;;;5030527;28;20292;-46
2022/06/29 03:24:57;;;;;;;3.35;2.58;;;19.50;98.20;;;;;;5049932;28;20215;-50
2022/06/29 03:27:25;;;;;;;2.50;2.25;;;19.50;98.20;;;;;;5041890;28;20231;-50
2022/06/29 03:29:52;;;;;;;2.92;2.13;;;19.50;98.20;;;;;;5030300;28;20400;-32
2022/06/29 03:32:22;;;;;;;3.17;2.78;;;19.50;98.20;;;;;;5040230;28;20658;-32
2022/06/29 03:34:52;;;;;;;2.53;2.17;;;19.50;98.20;;;;;;5048244;28;20192;-32
2022/06/29 03:37:19;;;;;;;3.00;2.15;;;19.40;98.20;;;;;;5062647;28;20244;-32
2022/06/29 03:39:48;;;;;;;3.00;2.15;;;19.40;98.20;;;;;;5049058;28;20211;-32
2022/06/29 03:42:17;;;;;;;3.60;2.58;;;19.40;98.20;;;;;;5048330;28;20946;-32
2022/06/29 03:44:45;;;;;;;2.72;2.22;;;19.60;98.40;;;;;;5049911;28;20196;-32
2022/06/29 03:47:12;;;;;;;2.90;2.20;;;19.60;98.30;;;;;;5050028;28;20204;-32
2022/06/29 03:49:39;;;;;;;4.18;2.67;;;19.50;98.30;;;;;;5049141;28;20230;-32
2022/06/29 03:52:06;;;;;;;5.80;2.55;;;19.50;98.40;;;;;;5049334;28;20262;-32
2022/06/29 03:54:34;;;;;;;3.78;2.55;;;19.50;98.30;;;;;;5049736;28;20211;-32
2022/06/29 03:57:03;;;;;;;2.45;2.13;;;19.40;98.30;;;;;;5049103;28;20307;-32
2022/06/29 03:59:30;;;;;;;3.10;2.67;;;19.50;98.30;;;;;;5049742;28;20220;-32
2022/06/29 04:02:02;;;;;;;3.25;2.95;;;19.40;98.30;;;;;;5049725;28;20200;-32
2022/06/29 04:04:32;;;;;;;2.72;2.03;;;19.40;98.30;;;;;;5031324;28;20232;-32
2022/06/29 04:07:02;;;;;;;4.05;2.28;;;19.40;98.40;;;;;;5044877;28;20436;-32
2022/06/29 04:09:29;;;;;;;5.10;2.58;;;19.40;98.40;;;;;;5049467;28;20651;-32
2022/06/29 04:11:58;;;;;;;3.67;2.35;;;19.40;98.40;;;;;;5048986;28;20448;-32
2022/06/29 04:14:27;;;;;;;3.15;2.08;;;19.40;98.40;;;;;;5046970;28;20609;-32
2022/06/29 04:16:56;;;;;;;5.05;2.08;;;19.40;98.50;;;;;;5029113;28;20612;-32
2022/06/29 04:19:26;;;;;;;4.38;2.70;;;19.40;98.50;;;;;;5045728;28;20226;-32
2022/06/29 04:21:56;;;;;;;3.05;2.30;;;19.40;98.50;;;;;;5049160;28;20618;-32
2022/06/29 04:24:23;;;;;;;4.28;2.05;;;19.40;98.50;;;;;;5047046;28;20254;-32
2022/06/29 04:26:53;;;;;;;3.42;2.60;;;19.40;98.50;;;;;;5047953;28;20272;-32
2022/06/29 04:29:22;;;;;;;3.20;1.75;;;19.40;98.50;;;;;;5046062;28;20764;-32
2022/06/29 04:31:52;;;;;;;3.00;1.95;;;19.40;98.50;;;;;;5064275;28;20196;-32
2022/06/29 04:34:19;;;;;;;3.45;2.25;;;19.30;98.50;;;;;;5048767;28;20577;-32
2022/06/29 04:36:47;;;;;;;2.53;1.90;;;19.30;98.50;;;;;;5052109;28;20254;-32
2022/06/29 04:39:14;;;;;;;5.05;2.60;;;19.30;98.50;;;;;;5067235;28;20468;-32
2022/06/29 04:41:41;;;;;;;4.95;3.15;;;19.40;98.60;;;;;;5048120;28;20223;-32
2022/06/29 04:44:11;;;;;;;5.78;2.30;;;19.40;98.60;;;;;;5048211;28;20215;-51
2022/06/29 04:46:38;;;;;;;3.80;2.40;;;19.40;98.60;;;;;;5046774;28;20613;-50
2022/06/29 04:49:06;;;;;;;4.47;2.72;;;19.40;98.60;;;;;;5030458;28;20354;-49
2022/06/29 04:51:35;;;;;;;4.03;2.20;;;19.40;98.70;;;;;;5047790;28;20192;-51
2022/06/29 04:54:03;;;;;;;2.95;2.35;;;19.40;98.60;;;;;;5048213;28;20263;-51
2022/06/29 04:56:35;;;;;;;4.15;2.13;;;19.40;98.60;;;;;;5047651;28;20299;-50
2022/06/29 04:59:02;;;;;;;2.88;2.40;;;19.40;98.60;;;;;;5046441;28;20200;-50
2022/06/29 05:01:31;;;;;;;3.92;2.13;;;19.40;98.60;;;;;;5047052;28;20631;-50
2022/06/29 05:04:01;;;;;;;6.85;2.65;;;19.40;98.70;;;;;;5046415;28;20266;-50
2022/06/29 05:06:28;;;;;;;5.22;2.60;;;19.40;98.70;;;;;;5045725;28;20204;-50
2022/06/29 05:08:56;;;;;;;3.40;2.42;;;19.50;98.70;;;;;;5047356;28;20269;-49
2022/06/29 05:11:25;;;;;;;3.90;2.28;;;19.50;98.80;;;;;;5047267;28;20192;-50
2022/06/29 05:13:53;;;;;;;2.75;2.40;;;19.50;98.80;;;;;;5046187;28;20192;-49
2022/06/29 05:16:20;;;;;;;3.25;2.50;;;19.60;98.90;;;;;;5047400;28;20196;-50
2022/06/29 05:18:48;;;;;;;4.22;2.47;;;19.60;98.90;;;;;;5034891;28;20231;-49
2022/06/29 05:21:17;;;;;;;3.53;2.70;;;19.60;98.90;;;;;;5046902;28;20775;-50
2022/06/29 05:23:49;;;;;;;4.00;2.20;;;19.70;98.90;;;;;;5040198;28;20212;-49
2022/06/29 05:26:17;;;;;;;2.58;2.30;;;19.70;99.00;;;;;;5044897;28;20207;-50
2022/06/29 05:28:47;;;;;;;3.97;2.63;;;19.70;99.00;;;;;;5046577;28;20315;-50
2022/06/29 05:31:19;;;;;;;2.97;2.42;;;19.80;99.10;;;;;;5046715;28;20211;-51
2022/06/29 05:33:47;;;;;;;6.30;2.22;;;19.90;99.10;;;;;;5046913;28;20232;-50
2022/06/29 05:36:14;;;;;;;2.47;2.20;;;19.90;99.10;;;;;;5046347;28;20261;-50
2022/06/29 05:38:41;;;;;;;2.95;2.20;;;20.00;99.20;;;;;;5047067;28;20247;-50
2022/06/29 05:41:11;;;;;;;6.50;2.30;;;20.00;99.20;;;;;;5046605;28;20222;-51
2022/06/29 05:43:38;;;;;;;2.78;2.13;;;20.10;99.20;;;;;;5047052;28;20200;-50
2022/06/29 05:46:05;;;;;;;3.95;2.38;;;20.20;99.30;;;;;;5047044;28;20200;-51
2022/06/29 05:48:33;;;;;;;5.88;2.47;;;20.20;99.30;;;;;;5046937;28;20685;-50
2022/06/29 05:51:00;;;;;;;2.22;1.98;;;20.20;99.30;;;;;;5046247;28;20208;-50
2022/06/29 05:53:28;;;;;;;5.60;2.30;;;20.30;99.30;;;;;;5047466;28;20319;-50
2022/06/29 05:55:55;;;;;;;7.00;2.58;;;20.40;99.30;;;;;;5046781;28;20200;-50
2022/06/29 05:58:25;;;;;;;6.85;2.70;;;20.40;99.30;;;;;;5028996;28;20238;-51
2022/06/29 06:00:52;;;;;;;5.28;2.38;;;20.50;99.40;;;;;;5044230;28;20212;-50
2022/06/29 06:03:19;;;;;;;3.30;2.15;;;20.50;99.30;;;;;;5033589;28;20624;-49
2022/06/29 06:05:49;;;;;;;4.07;2.20;;;20.60;99.40;;;;;;5039611;28;20208;-49
2022/06/29 06:08:17;;;;;;;2.95;2.17;;;20.60;99.40;;;;;;5030994;28;20258;-49
2022/06/29 06:10:46;;;;;;;3.75;2.45;;;20.70;99.40;;;;;;5037332;28;20327;-49
2022/06/29 06:13:21;;;;;;;9.65;2.50;;;20.70;99.40;;;;;;5045546;28;20638;-49
2022/06/29 06:15:50;;;;;;;5.55;2.55;;;20.80;99.40;;;;;;5029685;28;20197;-49
2022/06/29 06:18:18;;;;;;;4.78;2.05;;;20.90;99.50;;;;;;5035839;28;20601;-50
2022/06/29 06:20:48;;;;;;;7.05;2.10;;;20.90;99.50;;;;;;5038570;28;20234;-50
2022/06/29 06:23:15;;;;;;;7.97;2.33;;;20.90;99.50;;;;;;5042689;28;20428;-50
2022/06/29 06:25:45;;;;;;;4.78;2.10;;;21.00;99.60;;;;;;5043105;28;20212;-50
2022/06/29 06:28:14;;;;;;;2.30;1.90;;;21.10;99.60;;;;;;5044375;28;20232;-50
2022/06/29 06:30:44;;;;;;;4.47;2.50;;;21.20;99.60;;;;;;5040297;28;20254;-50
2022/06/29 06:33:13;;;;;;;4.18;1.92;;;21.20;99.70;;;;;;5044691;28;20216;-50
2022/06/29 06:35:45;;;;;;;2.85;2.00;;;21.30;99.60;;;;;;5044205;28;20203;-50
2022/06/29 06:38:14;;;;;;;3.40;2.00;;;21.40;99.70;;;;;;5044482;28;20296;-50
2022/06/29 06:43:29;;;;;;;4.22;2.53;;;21.50;99.70;;;;;;5043120;28;20265;-50
2022/06/29 06:45:56;;;;;;;8.63;2.10;;;21.50;99.70;;;;;;5040003;28;20355;-50
2022/06/29 06:48:26;;;;;;;2.85;2.15;;;21.50;99.70;;;;;;5043344;28;20216;-50
2022/06/29 06:50:56;;;;;;;6.18;2.33;;;21.60;99.80;;;;;;5029800;28;20228;-51
2022/06/29 06:53:23;;;;;;;7.75;2.40;;;21.60;99.80;;;;;;5046704;28;20335;-51
2022/06/29 06:55:50;;;;;;;5.05;1.95;;;21.70;99.80;;;;;;5043352;28;20196;-52
2022/06/29 06:58:20;;;;;;;6.90;1.83;;;21.70;99.80;;;;;;5044710;28;20212;-51
2022/06/29 07:00:47;;;;;;;6.93;2.15;;;21.80;99.90;;;;;;5052036;28;20625;-51
2022/06/29 07:03:14;;;;;;;3.17;1.80;;;21.80;99.90;;;;;;5045200;28;20688;-51
2022/06/29 07:05:42;;;;;;;4.43;2.20;;;21.90;99.90;;;;;;5044889;28;20200;-33
2022/06/29 07:08:09;;;;;;;5.45;2.08;;;21.90;99.90;;;;;;5044575;28;20211;-33
2022/06/29 07:10:36;;;;;;;4.35;2.30;;;22.00;99.90;;;;;;5041462;28;20339;-32
2022/06/29 07:13:03;;;;;;;7.75;2.47;;;22.00;99.90;;;;;;5049471;28;20200;-32
2022/06/29 07:15:36;;;;;;;10.80;3.65;;;22.10;99.90;;;;;;5048469;28;20228;-32
2022/06/29 07:18:08;;;;;;;5.70;3.00;;;22.10;99.90;;;;;;5031471;28;20228;-33
2022/06/29 07:20:35;;;;;;;13.60;3.08;;;22.20;99.90;;;;;;5047085;28;20196;-32
2022/06/29 07:23:02;;;;;;;6.07;2.72;;;22.30;99.90;;;;;;5048092;28;20272;-32
2022/06/29 07:25:30;;;;;;;6.57;2.08;;;22.30;99.90;;;;;;5047991;28;20234;-33
2022/06/29 07:28:00;;;;;;;14.27;3.08;;;22.40;99.90;;;;;;5044001;28;20633;-33
2022/06/29 07:30:28;;;;;;;13.77;2.47;;;22.40;99.90;;;;;;5048367;28;20240;-32
2022/06/29 07:32:55;;;;;;;11.05;2.67;;;22.50;99.90;;;;;;5048311;28;20303;-32
2022/06/29 07:35:22;;;;;;;18.88;3.47;;;22.50;99.90;;;;;;5048833;28;20204;-33
2022/06/29 07:37:53;;;;;;;6.90;2.58;;;22.60;99.90;;;;;;5041442;28;20847;-32
2022/06/29 07:40:21;;;;;;;9.88;2.53;;;22.70;99.90;;;;;;5043519;28;20646;-33
2022/06/29 07:42:48;;;;;;;6.05;1.73;;;22.70;99.90;;;;;;5048381;28;20211;-33
2022/06/29 07:45:18;;;;;;;4.15;1.85;;;22.70;99.90;;;;;;5049976;28;20195;-33
2022/06/29 07:47:52;;;;;;;7.20;1.58;;;22.80;99.90;;;;;;5047868;28;20736;-33
2022/06/29 07:50:22;;;;;;;4.55;1.58;;;22.80;99.90;;;;;;5045636;28;20228;-33
2022/06/29 07:52:52;;;;;;;6.30;1.83;;;22.90;99.90;;;;;;5046197;28;20204;-32
2022/06/29 07:55:21;;;;;;;2.65;1.58;;;23.00;99.90;;;;;;5039188;28;20193;-33
2022/06/29 07:57:51;;;;;;;1.60;1.50;;;23.00;99.90;;;;;;5039313;28;20196;-33
2022/06/29 08:00:18;;;;;;;4.63;1.50;;;23.10;99.90;;;;;;5047309;28;20695;-33
2022/06/29 08:02:46;;;;;;;3.85;1.73;;;23.10;99.90;;;;;;5046180;28;20342;-33
2022/06/29 08:05:14;;;;;;;1.65;1.30;;;23.20;99.90;;;;;;5047210;28;20294;-33
2022/06/29 08:07:43;;;;;;;1.95;1.52;;;23.20;99.90;;;;;;5044834;28;20208;-33
2022/06/29 08:10:11;;;;;;;3.65;1.50;;;23.30;99.90;;;;;;5045740;28;20687;-32
2022/06/29 08:12:38;;;;;;;3.00;1.40;;;23.30;99.90;;;;;;5045027;28;20207;-33
2022/06/29 08:15:08;;;;;;;2.22;1.23;;;23.40;99.90;;;;;;5047297;28;20226;-33
2022/06/29 08:17:38;;;;;;;2.33;1.38;;;23.50;99.90;;;;;;5045656;28;20204;-33
2022/06/29 08:20:06;;;;;;;1.92;1.55;;;23.50;99.90;;;;;;5047287;28;20219;-33
2022/06/29 08:22:40;;;;;;;1.63;1.25;;;23.50;99.90;;;;;;5040698;28;20674;-33
2022/06/29 08:25:09;;;;;;;2.08;1.30;;;23.60;99.90;;;;;;5047022;28;20196;-33
2022/06/29 08:27:40;;;;;;;2.33;1.40;;;23.70;99.90;;;;;;5056611;28;20219;-33
2022/06/29 08:30:11;;;;;;;2.38;1.23;;;23.70;99.90;;;;;;5044129;28;20235;-33
2022/06/29 08:32:41;;;;;;;2.53;1.23;;;23.70;99.90;;;;;;5041693;28;20250;-33
2022/06/29 08:35:10;;;;;;;5.65;1.75;;;23.80;99.90;;;;;;5027300;28;20268;-33
2022/06/29 08:37:46;;;;;;;15.52;2.92;;;23.80;99.90;;;;;;5044125;28;20351;-33
2022/06/29 08:40:18;;;;;;;4.53;2.03;;;23.90;99.90;;;;;;5049531;28;20243;-33
2022/06/29 08:42:47;;;;;;;4.13;1.98;;;23.90;99.90;;;;;;5044905;28;20204;-33
2022/06/29 08:45:14;;;;;;;1.95;1.50;;;24.00;99.90;;;;;;5046472;28;20200;-53
2022/06/29 08:47:42;;;;;;;2.70;1.40;;;24.00;99.90;;;;;;5045312;28;20307;-52
2022/06/29 08:50:13;;;;;;;4.25;1.50;;;24.00;99.90;;;;;;5027417;28;20227;-53
2022/06/29 08:52:43;;;;;;;4.13;1.25;;;24.10;99.90;;;;;;5043342;28;20208;-52
2022/06/29 08:55:13;;;;;;;5.22;1.63;;;24.10;99.90;;;;;;5044261;28;20212;-53
2022/06/29 08:57:41;;;;;;;3.45;1.50;;;24.20;99.90;;;;;;5045047;28;20212;-52
2022/06/29 09:00:10;;;;;;;3.17;1.50;;;24.20;99.90;;;;;;5045691;28;20674;-52
2022/06/29 09:02:43;;;;;;;4.20;1.30;;;24.30;99.90;;;;;;5050371;28;20297;-52
2022/06/29 09:05:13;;;;;;;4.40;2.10;;;24.30;99.90;;;;;;5039991;28;21610;-52
2022/06/29 09:07:40;;;;;;;4.85;1.73;;;24.30;99.90;;;;;;5040845;28;20215;-52
2022/06/29 09:10:12;;;;;;;4.85;1.85;;;24.40;99.90;;;;;;5046342;28;20596;-52
2022/06/29 09:12:49;;;;;;;4.47;1.80;;;24.40;99.90;;;;;;5047509;28;20238;-52
2022/06/29 09:15:32;;;;;;;10.82;2.50;;;24.50;99.90;;;;;;5045636;28;20218;-52
2022/06/29 09:18:21;;;;;;;7.88;2.30;;;24.50;99.90;;;;;;5065989;28;20199;-52
2022/06/29 09:20:54;;;;;;;4.68;2.30;;;24.50;99.90;;;;;;5045262;28;20772;-52
2022/06/29 09:23:23;;;;;;;6.32;1.63;;;24.60;99.90;;;;;;5041821;28;20203;-52
2022/06/29 09:25:50;;;;;;;7.10;1.77;;;24.60;99.90;;;;;;5036400;28;20269;-53
2022/06/29 09:28:31;;;;;;;6.55;1.60;;;24.60;99.90;;;;;;5044755;28;20718;-52
2022/06/29 09:30:59;;;;;;;3.20;1.35;;;24.70;99.90;;;;;;5027339;28;20282;-33
2022/06/29 09:33:31;;;;;;;5.35;1.30;;;24.70;99.90;;;;;;5045634;28;20222;-33
2022/06/29 09:36:08;;;;;;;5.30;1.65;;;24.80;99.80;;;;;;5044955;28;20617;-33
2022/06/29 09:38:36;;;;;;;2.88;1.40;;;24.80;99.90;;;;;;5043375;28;20742;-33
2022/06/29 09:41:11;;;;;;;2.13;1.00;;;24.80;99.80;;;;;;5044790;28;20204;-33
2022/06/29 09:43:45;;;;;;;1.98;1.20;;;24.90;99.70;;;;;;5055976;28;20208;-33
2022/06/29 09:46:14;;;;;;;7.57;1.70;;;24.90;99.70;;;;;;5045771;28;20234;-33
2022/06/29 09:48:43;;;;;;;9.52;2.70;;;24.90;99.40;;;;;;5045790;28;20949;-33
2022/06/29 09:51:30;;;;;;;3.55;1.20;;;24.90;99.10;;;;;;5045831;28;20286;-33
2022/06/29 09:54:10;;;;;;;4.30;1.02;;;25.00;99.00;;;;;;5046954;28;20221;-33
2022/06/29 09:56:55;;;;;;;4.18;1.25;;;25.00;99.10;;;;;;5048700;28;20429;-33
2022/06/29 10:05:18;;;;;;;1.40;0.80;;;25.00;99.50;;;;;;5040093;28;20200;-33
2022/06/29 10:07:54;;;;;;;2.10;0.90;;;25.10;99.30;;;;;;5044600;28;20223;-33
2022/06/29 10:10:23;;;;;;;3.25;0.90;;;25.20;99.30;;;;;;5043864;28;20223;-33
2022/06/29 10:16:12;;;;;;;1.40;0.90;;;25.30;99.40;;;;;;5026542;28;20199;-33
2022/06/29 10:19:20;;;;;;;3.03;1.17;;;25.30;99.40;;;;;;5043681;28;20238;-33
2022/06/29 10:21:48;;;;;;;1.75;1.23;;;25.40;99.50;;;;;;5044347;28;20267;-33
2022/06/29 10:24:18;;;;;;;3.60;1.00;;;25.50;99.40;;;;;;5037954;28;20682;-33
2022/06/29 10:26:48;;;;;;;1.48;1.00;;;25.50;99.40;;;;;;5042331;28;20717;-33
2022/06/29 10:29:18;;;;;;;4.93;1.02;;;25.70;99.40;;;;;;5043491;28;20227;-32
2022/06/29 10:31:51;;;;;;;6.10;1.23;;;25.70;99.20;;;;;;5044188;28;20220;-33
2022/06/29 10:34:31;;;;;;;3.33;1.27;;;25.70;99.10;;;;;;5040730;28;20211;-36
2022/06/29 10:37:05;;;;;;;3.50;1.40;;;25.70;99.00;;;;;;5039221;28;20267;-32
2022/06/29 10:39:44;;;;;;;3.78;1.25;;;25.70;98.90;;;;;;5041923;28;20297;-33
2022/06/29 10:45:07;;;;;;;2.88;1.17;;;25.80;98.90;;;;;;5046943;28;20215;-50
2022/06/29 10:47:36;;;;;;;2.70;0.98;;;25.90;99.00;;;;;;5048593;28;20582;-49
2022/06/29 10:52:48;;;;;;;5.03;1.30;;;26.00;98.80;;;;;;5049075;28;20683;-50
2022/06/29 10:55:21;;;;;;;2.10;1.15;;;26.10;99.00;;;;;;5047579;28;20223;-50
2022/06/29 10:57:52;;;;;;;6.85;1.50;;;26.10;99.00;;;;;;5047416;28;20298;-50
2022/06/29 11:00:28;;;;;;;6.05;1.40;;;26.20;98.70;;;;;;5036184;28;20577;-49
2022/06/29 11:02:56;;;;;;;4.90;1.45;;;26.30;98.70;;;;;;5045530;28;20581;-50
2022/06/29 11:05:23;;;;;;;2.45;1.35;;;26.30;98.70;;;;;;5047630;28;20726;-49
2022/06/29 11:13:29;;;;;;;1.92;1.20;;;26.50;98.80;;;;;;5047861;28;20307;-50
2022/06/29 11:16:00;;;;;;;4.30;1.70;;;26.50;98.80;;;;;;5057509;28;20208;-50
2022/06/29 11:18:34;;;;;;;4.68;1.83;;;26.60;98.70;;;;;;5037441;28;21056;-50
2022/06/29 11:21:06;;;;;;;18.85;3.65;;;26.70;98.80;;;;;;5048065;28;20593;-50
2022/06/29 11:23:35;;;;;;;10.70;2.25;;;26.70;98.90;;;;;;5043612;28;20745;-49
2022/06/29 11:26:05;;;;;;;3.95;1.63;;;26.80;98.60;;;;;;5045243;28;20274;-49
2022/06/29 11:28:36;;;;;;;3.38;1.50;;;26.90;98.70;;;;;;5044358;28;20631;-50
2022/06/29 11:31:12;;;;;;;4.32;1.77;;;26.90;98.80;;;;;;5047439;28;20771;-50
2022/06/29 11:33:43;;;;;;;7.50;1.88;;;27.00;98.60;;;;;;5047181;28;20247;-50
2022/06/29 11:36:15;;;;;;;4.00;1.48;;;27.10;98.50;;;;;;5047796;28;20572;-50
2022/06/29 11:38:44;;;;;;;3.00;1.25;;;27.20;98.90;;;;;;5047556;28;20216;-49
2022/06/29 11:41:18;;;;;;;3.00;1.30;;;27.30;98.80;;;;;;5041774;28;20208;-50
2022/06/29 11:44:31;;;;;;;5.28;1.30;;;27.30;98.80;;;;;;5054011;28;20209;-49
2022/06/29 11:47:00;;;;;;;1.60;1.30;;;27.40;98.90;;;;;;5043900;28;20709;-50
2022/06/29 11:49:38;;;;;;;2.45;0.95;;;27.40;98.70;;;;;;5045230;28;20204;-50
2022/06/29 11:52:08;;;;;;;5.57;1.50;;;27.40;98.70;;;;;;5040676;28;20243;-50
2022/06/29 11:54:38;;;;;;;6.40;1.52;;;27.50;98.80;;;;;;5040214;28;20208;-50
2022/06/29 11:57:17;;;;;;;4.90;2.13;;;27.50;98.50;;;;;;5045161;28;20638;-50
2022/06/29 11:59:48;;;;;;;2.35;1.15;;;27.60;98.20;;;;;;5063182;28;20211;-50
2022/06/29 12:02:16;;;;;;;3.22;1.25;;;27.60;98.40;;;;;;5046083;28;20212;-50
2022/06/29 12:04:47;;;;;;;2.53;1.13;;;27.60;98.30;;;;;;5046766;28;20966;-50
2022/06/29 12:07:17;;;;;;;2.63;1.33;;;27.60;98.30;;;;;;5047455;28;20220;-50
2022/06/29 12:09:45;;;;;;;6.20;1.60;;;27.70;98.30;;;;;;5046048;28;20200;-50
2022/06/29 12:12:14;;;;;;;3.63;1.20;;;27.70;98.40;;;;;;5042622;28;20356;-50
2022/06/29 12:14:44;;;;;;;4.03;1.45;;;27.70;98.30;;;;;;5048753;28;20218;-50
2022/06/29 12:17:14;;;;;;;2.47;1.17;;;27.80;98.20;;;;;;5048298;28;20696;-50
2022/06/29 12:19:44;;;;;;;3.47;1.30;;;27.80;98.20;;;;;;5051903;28;20226;-50
2022/06/29 12:22:12;;;;;;;5.45;1.60;;;27.80;98.10;;;;;;5046830;28;20226;-50
2022/06/29 12:24:39;;;;;;;3.08;1.50;;;27.90;98.20;;;;;;5048437;28;20222;-50
2022/06/29 12:27:10;;;;;;;4.60;1.45;;;27.90;98.30;;;;;;5044601;28;20609;-50
2022/06/29 12:29:37;;;;;;;4.03;1.38;;;28.00;97.60;;;;;;5047002;28;20208;-49
2022/06/29 12:32:04;;;;;;;4.55;1.40;;;28.00;98.00;;;;;;5044597;28;20342;-49
2022/06/29 12:34:51;;;;;;;3.80;1.25;;;28.10;97.70;;;;;;5043539;28;20773;-49
2022/06/29 12:37:21;;;;;;;2.08;1.15;;;28.10;98.00;;;;;;5046951;28;20231;-50
2022/06/29 12:39:48;;;;;;;8.13;1.70;;;28.10;98.00;;;;;;5052783;28;20223;-50
2022/06/29 12:42:18;;;;;;;31.20;4.40;;;28.20;98.00;;;;;;5043016;28;20290;-50
2022/06/29 12:44:45;;;;;;;11.85;2.50;;;28.20;97.70;;;;;;5057883;28;20216;-50
2022/06/29 12:47:12;;;;;;;3.00;1.15;;;28.20;97.90;;;;;;5048126;28;20196;-50
2022/06/29 12:49:39;;;;;;;4.13;1.20;;;28.20;97.70;;;;;;5046085;28;20216;-50
2022/06/29 12:52:07;;;;;;;4.78;1.42;;;28.20;97.80;;;;;;5045114;28;20220;-50
2022/06/29 12:54:36;;;;;;;5.10;1.70;;;28.20;97.90;;;;;;5041789;28;20207;-50
2022/06/29 12:57:06;;;;;;;2.65;1.40;;;28.30;98.00;;;;;;5039089;28;20318;-50
2022/06/29 12:59:35;;;;;;;3.05;1.42;;;28.30;97.90;;;;;;5042274;28;20216;-50
2022/06/29 13:02:12;;;;;;;11.63;2.50;;;28.40;98.10;;;;;;5045127;28;20200;-50
2022/06/29 13:04:39;;;;;;;5.25;1.50;;;28.50;98.00;;;;;;5044931;28;20203;-50
2022/06/29 13:07:10;;;;;;;6.40;2.03;;;28.60;98.00;;;;;;5048375;28;20207;-50
2022/06/29 13:09:38;;;;;;;6.60;1.83;;;28.60;97.90;;;;;;5050276;28;20208;-50
2022/06/29 13:12:06;;;;;;;3.65;1.25;;;28.60;97.20;;;;;;5042843;28;20224;-50
2022/06/29 13:14:33;;;;;;;12.23;1.65;;;28.60;97.10;;;;;;5045431;28;20637;-50
2022/06/29 13:17:01;;;;;;;8.30;2.28;;;28.70;97.20;;;;;;5047434;28;20265;-50
2022/06/29 13:19:29;;;;;;;6.20;1.98;;;28.70;97.20;;;;;;5046476;28;20297;-50
2022/06/29 13:21:56;;;;;;;3.22;1.30;;;28.80;97.30;;;;;;5042731;28;20624;-50
2022/06/29 13:24:23;;;;;;;26.00;3.83;;;28.90;97.30;;;;;;5042164;28;20247;-50